sensor_id;sensor_type;location;lat;lon;timestamp;pressure;altitude;pressure_sealevel;temperature;humidity
56456;BME280;42354;53.218;6.564;2023-01-29T00:00:37;46995.50;;;-142.92;81.77
56456;BME280;42354;53.218;6.564;2023-01-29T00:03:02;47011.91;;;-142.92;81.61
56456;BME280;42354;53.218;6.564;2023-01-29T00:05:27;47009.84;;;-142.92;81.77
56456;BME280;42354;53.218;6.564;2023-01-29T00:07:54;47003.69;;;-142.92;81.59
56456;BME280;42354;53.218;6.564;2023-01-29T00:10:19;47011.91;;;-142.92;81.78
56456;BME280;42354;53.218;6.564;2023-01-29T00:12:45;46991.38;;;-142.92;81.67
56456;BME280;42354;53.218;6.564;2023-01-29T00:15:10;47003.69;;;-142.92;81.76
56456;BME280;42354;53.218;6.564;2023-01-29T00:17:35;47018.06;;;-142.92;81.74
56456;BME280;42354;53.218;6.564;2023-01-29T00:20:01;47007.81;;;-142.92;81.77
56456;BME280;42354;53.218;6.564;2023-01-29T00:22:26;46993.44;;;-142.92;81.91
56456;BME280;42354;53.218;6.564;2023-01-29T00:24:53;46997.53;;;-142.92;82.07
56456;BME280;42354;53.218;6.564;2023-01-29T00:27:19;46997.53;;;-142.92;82.00
56456;BME280;42354;53.218;6.564;2023-01-29T00:29:44;46993.44;;;-142.92;81.96
56456;BME280;42354;53.218;6.564;2023-01-29T00:32:29;46989.34;;;-142.92;82.25
56456;BME280;42354;53.218;6.564;2023-01-29T00:34:56;47026.28;;;-142.92;82.17
56456;BME280;42354;53.218;6.564;2023-01-29T00:37:22;46999.59;;;-142.92;82.25
56456;BME280;42354;53.218;6.564;2023-01-29T00:39:47;47028.31;;;-142.92;82.38
56456;BME280;42354;53.218;6.564;2023-01-29T00:42:12;47009.84;;;-142.92;82.51
56456;BME280;42354;53.218;6.564;2023-01-29T00:44:56;47001.66;;;-142.92;82.62
56456;BME280;42354;53.218;6.564;2023-01-29T00:47:21;46989.34;;;-142.92;82.61
56456;BME280;42354;53.218;6.564;2023-01-29T00:50:00;47003.69;;;-142.92;82.58
56456;BME280;42354;53.218;6.564;2023-01-29T00:52:27;46999.59;;;-142.92;82.70
56456;BME280;42354;53.218;6.564;2023-01-29T00:54:57;46997.53;;;-142.92;82.61
56456;BME280;42354;53.218;6.564;2023-01-29T00:57:24;47024.22;;;-142.92;82.67
56456;BME280;42354;53.218;6.564;2023-01-29T00:59:50;46997.53;;;-142.92;82.87
56456;BME280;42354;53.218;6.564;2023-01-29T01:02:16;46989.34;;;-142.92;82.86
56456;BME280;42354;53.218;6.564;2023-01-29T01:05:00;46989.34;;;-142.92;83.01
56456;BME280;42354;53.218;6.564;2023-01-29T01:07:27;47011.91;;;-142.92;82.90
56456;BME280;42354;53.218;6.564;2023-01-29T01:09:53;46993.44;;;-142.92;83.11
56456;BME280;42354;53.218;6.564;2023-01-29T01:12:36;47005.75;;;-142.92;83.32
56456;BME280;42354;53.218;6.564;2023-01-29T01:15:02;46983.19;;;-142.92;83.10
56456;BME280;42354;53.218;6.564;2023-01-29T01:17:27;46995.50;;;-142.92;83.20
56456;BME280;42354;53.218;6.564;2023-01-29T01:19:53;47020.13;;;-142.92;83.30
56456;BME280;42354;53.218;6.564;2023-01-29T01:22:18;46999.59;;;-142.92;83.18
56456;BME280;42354;53.218;6.564;2023-01-29T01:24:44;47003.69;;;-142.92;83.14
56456;BME280;42354;53.218;6.564;2023-01-29T01:27:09;47016.00;;;-142.92;83.04
56456;BME280;42354;53.218;6.564;2023-01-29T01:29:34;47009.84;;;-142.92;83.17
56456;BME280;42354;53.218;6.564;2023-01-29T01:32:01;46993.44;;;-142.92;83.26
56456;BME280;42354;53.218;6.564;2023-01-29T01:34:26;47007.81;;;-142.92;83.21
56456;BME280;42354;53.218;6.564;2023-01-29T01:36:53;46999.59;;;-142.92;83.46
56456;BME280;42354;53.218;6.564;2023-01-29T01:39:20;47005.75;;;-142.92;83.42
56456;BME280;42354;53.218;6.564;2023-01-29T01:41:45;47007.81;;;-142.92;83.66
56456;BME280;42354;53.218;6.564;2023-01-29T01:47:16;46987.28;;;-142.92;83.72
56456;BME280;42354;53.218;6.564;2023-01-29T01:49:44;46995.50;;;-142.92;83.66
56456;BME280;42354;53.218;6.564;2023-01-29T01:52:12;46993.44;;;-142.92;83.68
56456;BME280;42354;53.218;6.564;2023-01-29T01:54:41;46995.50;;;-142.92;83.79
56456;BME280;42354;53.218;6.564;2023-01-29T01:57:19;46995.50;;;-142.92;83.52
56456;BME280;42354;53.218;6.564;2023-01-29T01:59:53;47003.69;;;-142.92;83.70
56456;BME280;42354;53.218;6.564;2023-01-29T02:02:20;47001.66;;;-142.92;83.82
56456;BME280;42354;53.218;6.564;2023-01-29T02:05:05;47003.69;;;-142.92;83.90
56456;BME280;42354;53.218;6.564;2023-01-29T02:07:49;47009.84;;;-142.92;83.89
56456;BME280;42354;53.218;6.564;2023-01-29T02:10:46;46981.13;;;-142.92;83.75
56456;BME280;42354;53.218;6.564;2023-01-29T02:13:14;47003.69;;;-142.92;83.90
56456;BME280;42354;53.218;6.564;2023-01-29T02:15:42;46995.50;;;-142.92;84.14
56456;BME280;42354;53.218;6.564;2023-01-29T02:18:11;47016.00;;;-142.92;84.22
56456;BME280;42354;53.218;6.564;2023-01-29T02:20:38;47007.81;;;-142.92;84.35
56456;BME280;42354;53.218;6.564;2023-01-29T02:23:15;46997.53;;;-142.92;84.64
56456;BME280;42354;53.218;6.564;2023-01-29T02:28:30;47011.91;;;-142.92;85.16
56456;BME280;42354;53.218;6.564;2023-01-29T02:31:28;47007.81;;;-142.92;85.33
56456;BME280;42354;53.218;6.564;2023-01-29T02:34:16;47011.91;;;-142.92;85.49
56456;BME280;42354;53.218;6.564;2023-01-29T02:36:49;46983.19;;;-142.92;85.83
56456;BME280;42354;53.218;6.564;2023-01-29T02:39:17;46997.53;;;-142.92;85.94
56456;BME280;42354;53.218;6.564;2023-01-29T02:44:27;47011.91;;;-142.92;86.09
56456;BME280;42354;53.218;6.564;2023-01-29T02:52:11;46999.59;;;-142.92;86.72
56456;BME280;42354;53.218;6.564;2023-01-29T02:54:44;47013.97;;;-142.92;86.95
56456;BME280;42354;53.218;6.564;2023-01-29T02:57:23;46987.28;;;-142.92;87.04
56456;BME280;42354;53.218;6.564;2023-01-29T02:59:56;47005.75;;;-142.92;87.32
56456;BME280;42354;53.218;6.564;2023-01-29T03:02:29;46995.50;;;-142.92;87.62
56456;BME280;42354;53.218;6.564;2023-01-29T03:05:02;47013.97;;;-142.92;87.66
56456;BME280;42354;53.218;6.564;2023-01-29T03:07:36;46995.50;;;-142.92;87.77
56456;BME280;42354;53.218;6.564;2023-01-29T03:12:59;47018.06;;;-142.92;88.17
56456;BME280;42354;53.218;6.564;2023-01-29T03:15:30;47013.97;;;-142.92;88.22
56456;BME280;42354;53.218;6.564;2023-01-29T03:18:08;46987.28;;;-142.92;88.44
56456;BME280;42354;53.218;6.564;2023-01-29T03:20:40;47007.81;;;-142.92;88.39
56456;BME280;42354;53.218;6.564;2023-01-29T03:23:18;46997.53;;;-142.92;88.50
56456;BME280;42354;53.218;6.564;2023-01-29T03:25:50;47005.75;;;-142.92;88.50
56456;BME280;42354;53.218;6.564;2023-01-29T03:28:36;47013.97;;;-142.92;88.92
56456;BME280;42354;53.218;6.564;2023-01-29T03:31:23;46991.38;;;-142.92;88.93
56456;BME280;42354;53.218;6.564;2023-01-29T03:34:12;47013.97;;;-142.92;88.88
56456;BME280;42354;53.218;6.564;2023-01-29T03:36:57;46991.38;;;-142.92;88.78
56456;BME280;42354;53.218;6.564;2023-01-29T03:39:26;47016.00;;;-142.92;89.14
56456;BME280;42354;53.218;6.564;2023-01-29T03:47:46;46993.44;;;-142.92;89.54
56456;BME280;42354;53.218;6.564;2023-01-29T03:50:05;46995.50;;;-142.92;89.84
56456;BME280;42354;53.218;6.564;2023-01-29T03:58:02;47001.66;;;-142.92;90.41
56456;BME280;42354;53.218;6.564;2023-01-29T04:00:33;47020.13;;;-142.92;90.62
56456;BME280;42354;53.218;6.564;2023-01-29T04:03:14;47003.69;;;-142.92;90.39
56456;BME280;42354;53.218;6.564;2023-01-29T04:05:45;46983.19;;;-142.92;90.73
56456;BME280;42354;53.218;6.564;2023-01-29T04:08:15;46997.53;;;-142.92;90.97
56456;BME280;42354;53.218;6.564;2023-01-29T04:10:43;47011.91;;;-142.92;90.82
56456;BME280;42354;53.218;6.564;2023-01-29T04:13:11;47003.69;;;-142.92;91.00
56456;BME280;42354;53.218;6.564;2023-01-29T04:15:42;46995.50;;;-142.92;90.87
56456;BME280;42354;53.218;6.564;2023-01-29T04:18:10;47005.75;;;-142.92;91.08
56456;BME280;42354;53.218;6.564;2023-01-29T04:20:36;46987.28;;;-142.92;90.88
56456;BME280;42354;53.218;6.564;2023-01-29T04:23:04;46987.28;;;-142.92;90.99
56456;BME280;42354;53.218;6.564;2023-01-29T04:25:36;46995.50;;;-142.92;90.95
56456;BME280;42354;53.218;6.564;2023-01-29T04:30:45;47001.66;;;-142.92;90.91
56456;BME280;42354;53.218;6.564;2023-01-29T04:36:04;47007.81;;;-142.92;90.61
56456;BME280;42354;53.218;6.564;2023-01-29T04:41:21;47018.06;;;-142.92;90.33
56456;BME280;42354;53.218;6.564;2023-01-29T04:46:33;47007.81;;;-142.92;90.33
56456;BME280;42354;53.218;6.564;2023-01-29T04:51:42;46999.59;;;-142.92;90.33
56456;BME280;42354;53.218;6.564;2023-01-29T05:00:02;46999.59;;;-142.92;90.52
56456;BME280;42354;53.218;6.564;2023-01-29T05:02:32;47003.69;;;-142.92;90.84
56456;BME280;42354;53.218;6.564;2023-01-29T05:05:00;47001.66;;;-142.92;90.88
56456;BME280;42354;53.218;6.564;2023-01-29T05:07:27;47011.91;;;-142.92;90.95
56456;BME280;42354;53.218;6.564;2023-01-29T05:09:54;47024.22;;;-142.92;91.29
56456;BME280;42354;53.218;6.564;2023-01-29T05:12:20;47018.06;;;-142.92;91.14
56456;BME280;42354;53.218;6.564;2023-01-29T05:14:49;47003.69;;;-142.92;91.28
56456;BME280;42354;53.218;6.564;2023-01-29T05:17:17;47022.16;;;-142.92;91.33
56456;BME280;42354;53.218;6.564;2023-01-29T05:19:46;47003.69;;;-142.92;91.40
56456;BME280;42354;53.218;6.564;2023-01-29T05:22:14;46999.59;;;-142.92;91.27
56456;BME280;42354;53.218;6.564;2023-01-29T05:24:40;47005.75;;;-142.92;91.19
56456;BME280;42354;53.218;6.564;2023-01-29T05:27:12;47001.66;;;-142.92;91.19
56456;BME280;42354;53.218;6.564;2023-01-29T05:29:58;46997.53;;;-142.92;91.11
56456;BME280;42354;53.218;6.564;2023-01-29T05:32:23;46979.06;;;-142.92;91.23
56456;BME280;42354;53.218;6.564;2023-01-29T05:34:49;46983.19;;;-142.92;91.33
56456;BME280;42354;53.218;6.564;2023-01-29T05:37:14;47007.81;;;-142.92;91.25
56456;BME280;42354;53.218;6.564;2023-01-29T05:39:39;47030.38;;;-142.92;91.34
56456;BME280;42354;53.218;6.564;2023-01-29T05:42:05;47005.75;;;-142.92;91.27
56456;BME280;42354;53.218;6.564;2023-01-29T05:44:30;47011.91;;;-142.92;91.60
56456;BME280;42354;53.218;6.564;2023-01-29T05:46:55;46995.50;;;-142.92;91.62
56456;BME280;42354;53.218;6.564;2023-01-29T05:49:21;47020.13;;;-142.92;91.71
56456;BME280;42354;53.218;6.564;2023-01-29T05:51:46;46974.97;;;-142.92;91.76
56456;BME280;42354;53.218;6.564;2023-01-29T05:54:12;46991.38;;;-142.92;91.76
56456;BME280;42354;53.218;6.564;2023-01-29T05:56:38;47003.69;;;-142.92;91.71
56456;BME280;42354;53.218;6.564;2023-01-29T05:59:04;47005.75;;;-142.92;91.79
56456;BME280;42354;53.218;6.564;2023-01-29T06:01:29;47022.16;;;-142.92;91.85
56456;BME280;42354;53.218;6.564;2023-01-29T06:03:54;47007.81;;;-142.92;91.96
56456;BME280;42354;53.218;6.564;2023-01-29T06:06:20;47011.91;;;-142.92;91.80
56456;BME280;42354;53.218;6.564;2023-01-29T06:08:46;47030.38;;;-142.92;92.02
56456;BME280;42354;53.218;6.564;2023-01-29T06:11:12;47005.75;;;-142.92;92.07
56456;BME280;42354;53.218;6.564;2023-01-29T06:13:38;46977.03;;;-142.92;91.92
56456;BME280;42354;53.218;6.564;2023-01-29T06:16:07;47013.97;;;-142.92;91.74
56456;BME280;42354;53.218;6.564;2023-01-29T06:18:35;46991.38;;;-142.92;91.91
56456;BME280;42354;53.218;6.564;2023-01-29T06:21:01;47026.28;;;-142.92;91.63
56456;BME280;42354;53.218;6.564;2023-01-29T06:23:27;47024.22;;;-142.92;91.59
56456;BME280;42354;53.218;6.564;2023-01-29T06:25:52;46997.53;;;-142.92;91.62
56456;BME280;42354;53.218;6.564;2023-01-29T06:28:18;46991.38;;;-142.92;91.66
56456;BME280;42354;53.218;6.564;2023-01-29T06:30:43;47005.75;;;-142.92;91.50
56456;BME280;42354;53.218;6.564;2023-01-29T06:33:08;47003.69;;;-142.92;91.54
56456;BME280;42354;53.218;6.564;2023-01-29T06:35:34;46985.22;;;-142.92;91.15
56456;BME280;42354;53.218;6.564;2023-01-29T06:37:59;47020.13;;;-142.92;91.29
56456;BME280;42354;53.218;6.564;2023-01-29T06:40:24;47020.13;;;-142.92;91.00
56456;BME280;42354;53.218;6.564;2023-01-29T06:42:50;47018.06;;;-142.92;90.84
56456;BME280;42354;53.218;6.564;2023-01-29T06:45:15;47013.97;;;-142.92;90.80
56456;BME280;42354;53.218;6.564;2023-01-29T06:47:40;46981.13;;;-142.92;90.66
56456;BME280;42354;53.218;6.564;2023-01-29T06:50:06;47005.75;;;-142.92;90.46
56456;BME280;42354;53.218;6.564;2023-01-29T06:52:31;47018.06;;;-142.92;90.08
56456;BME280;42354;53.218;6.564;2023-01-29T06:54:57;47001.66;;;-142.92;90.07
56456;BME280;42354;53.218;6.564;2023-01-29T06:57:22;46999.59;;;-142.92;89.94
56456;BME280;42354;53.218;6.564;2023-01-29T06:59:48;47032.44;;;-142.92;90.01
56456;BME280;42354;53.218;6.564;2023-01-29T07:02:13;46997.53;;;-142.92;90.17
56456;BME280;42354;53.218;6.564;2023-01-29T07:04:39;46987.28;;;-142.92;90.21
56456;BME280;42354;53.218;6.564;2023-01-29T07:07:06;47003.69;;;-142.92;89.95
56456;BME280;42354;53.218;6.564;2023-01-29T07:09:38;47007.81;;;-142.92;90.11
56456;BME280;42354;53.218;6.564;2023-01-29T07:12:04;47026.28;;;-142.92;90.10
56456;BME280;42354;53.218;6.564;2023-01-29T07:14:29;46999.59;;;-142.92;89.98
56456;BME280;42354;53.218;6.564;2023-01-29T07:16:55;47016.00;;;-142.92;90.05
56456;BME280;42354;53.218;6.564;2023-01-29T07:19:20;47007.81;;;-142.92;90.20
56456;BME280;42354;53.218;6.564;2023-01-29T07:21:45;47024.22;;;-142.92;90.27
56456;BME280;42354;53.218;6.564;2023-01-29T07:24:11;47007.81;;;-142.92;90.64
56456;BME280;42354;53.218;6.564;2023-01-29T07:26:36;46997.53;;;-142.92;90.62
56456;BME280;42354;53.218;6.564;2023-01-29T07:29:03;47009.84;;;-142.92;90.62
56456;BME280;42354;53.218;6.564;2023-01-29T07:31:29;47011.91;;;-142.92;90.73
56456;BME280;42354;53.218;6.564;2023-01-29T07:33:54;47007.81;;;-142.92;90.79
56456;BME280;42354;53.218;6.564;2023-01-29T07:36:20;47003.69;;;-142.92;91.09
56456;BME280;42354;53.218;6.564;2023-01-29T07:38:48;47016.00;;;-142.92;90.80
56456;BME280;42354;53.218;6.564;2023-01-29T07:41:14;46999.59;;;-142.92;91.10
56456;BME280;42354;53.218;6.564;2023-01-29T07:43:40;47005.75;;;-142.92;90.99
56456;BME280;42354;53.218;6.564;2023-01-29T07:46:05;47020.13;;;-142.92;91.11
56456;BME280;42354;53.218;6.564;2023-01-29T07:48:30;46999.59;;;-142.92;91.33
56456;BME280;42354;53.218;6.564;2023-01-29T07:50:56;46995.50;;;-142.92;91.01
56456;BME280;42354;53.218;6.564;2023-01-29T07:53:22;47013.97;;;-142.92;91.15
56456;BME280;42354;53.218;6.564;2023-01-29T07:55:48;46999.59;;;-142.92;91.08
56456;BME280;42354;53.218;6.564;2023-01-29T07:58:13;47011.91;;;-142.92;91.03
56456;BME280;42354;53.218;6.564;2023-01-29T08:00:39;47020.13;;;-142.92;90.89
56456;BME280;42354;53.218;6.564;2023-01-29T08:03:06;47028.31;;;-142.92;90.89
56456;BME280;42354;53.218;6.564;2023-01-29T08:05:32;47011.91;;;-142.92;90.79
56456;BME280;42354;53.218;6.564;2023-01-29T08:07:57;47022.16;;;-142.92;90.60
56456;BME280;42354;53.218;6.564;2023-01-29T08:10:23;46987.28;;;-142.92;90.23
56456;BME280;42354;53.218;6.564;2023-01-29T08:12:56;47003.69;;;-142.92;90.07
56456;BME280;42354;53.218;6.564;2023-01-29T08:15:22;47024.22;;;-142.92;90.29
56456;BME280;42354;53.218;6.564;2023-01-29T08:17:48;47003.69;;;-142.92;90.26
56456;BME280;42354;53.218;6.564;2023-01-29T08:20:13;47018.06;;;-142.92;90.08
56456;BME280;42354;53.218;6.564;2023-01-29T08:22:38;47001.66;;;-142.92;90.24
56456;BME280;42354;53.218;6.564;2023-01-29T08:25:04;46999.59;;;-142.92;90.08
56456;BME280;42354;53.218;6.564;2023-01-29T08:27:29;47022.16;;;-142.92;90.23
56456;BME280;42354;53.218;6.564;2023-01-29T08:29:55;47042.69;;;-142.92;90.43
56456;BME280;42354;53.218;6.564;2023-01-29T08:32:20;46995.50;;;-142.92;90.59
56456;BME280;42354;53.218;6.564;2023-01-29T08:34:45;46995.50;;;-142.92;90.86
56456;BME280;42354;53.218;6.564;2023-01-29T08:37:11;47026.28;;;-142.92;90.85
56456;BME280;42354;53.218;6.564;2023-01-29T08:39:36;47007.81;;;-142.92;90.87
56456;BME280;42354;53.218;6.564;2023-01-29T08:42:02;47009.84;;;-142.92;90.97
56456;BME280;42354;53.218;6.564;2023-01-29T08:44:27;46999.59;;;-142.92;91.41
56456;BME280;42354;53.218;6.564;2023-01-29T08:46:52;47022.16;;;-142.92;91.56
56456;BME280;42354;53.218;6.564;2023-01-29T08:49:18;47016.00;;;-142.92;91.75
56456;BME280;42354;53.218;6.564;2023-01-29T08:51:43;46989.34;;;-142.92;91.71
56456;BME280;42354;53.218;6.564;2023-01-29T08:54:08;47011.91;;;-142.92;91.96
56456;BME280;42354;53.218;6.564;2023-01-29T08:56:34;47003.69;;;-142.92;91.77
56456;BME280;42354;53.218;6.564;2023-01-29T08:58:59;47003.69;;;-142.92;91.92
56456;BME280;42354;53.218;6.564;2023-01-29T09:01:24;46989.34;;;-142.92;92.04
56456;BME280;42354;53.218;6.564;2023-01-29T09:03:50;47011.91;;;-142.92;91.82
56456;BME280;42354;53.218;6.564;2023-01-29T09:06:16;47024.22;;;-142.92;92.00
56456;BME280;42354;53.218;6.564;2023-01-29T09:08:41;47001.66;;;-142.92;91.96
56456;BME280;42354;53.218;6.564;2023-01-29T09:11:07;46987.28;;;-142.92;92.08
56456;BME280;42354;53.218;6.564;2023-01-29T09:13:33;47013.97;;;-142.92;92.06
56456;BME280;42354;53.218;6.564;2023-01-29T09:16:02;47018.06;;;-142.92;92.08
56456;BME280;42354;53.218;6.564;2023-01-29T09:18:29;47003.69;;;-142.92;92.10
56456;BME280;42354;53.218;6.564;2023-01-29T09:20:54;47011.91;;;-142.92;92.39
56456;BME280;42354;53.218;6.564;2023-01-29T09:23:20;47003.69;;;-142.92;92.39
56456;BME280;42354;53.218;6.564;2023-01-29T09:25:45;47018.06;;;-142.92;92.07
56456;BME280;42354;53.218;6.564;2023-01-29T09:28:11;46991.38;;;-142.92;92.28
56456;BME280;42354;53.218;6.564;2023-01-29T09:30:37;47040.63;;;-142.92;92.18
56456;BME280;42354;53.218;6.564;2023-01-29T09:33:04;46987.28;;;-142.92;91.85
56456;BME280;42354;53.218;6.564;2023-01-29T09:35:30;47007.81;;;-142.92;91.51
56456;BME280;42354;53.218;6.564;2023-01-29T09:37:55;47005.75;;;-142.92;91.58
56456;BME280;42354;53.218;6.564;2023-01-29T09:40:25;47022.16;;;-142.92;91.36
56456;BME280;42354;53.218;6.564;2023-01-29T09:43:01;47020.13;;;-142.92;91.11
56456;BME280;42354;53.218;6.564;2023-01-29T09:45:29;47022.16;;;-142.92;91.26
56456;BME280;42354;53.218;6.564;2023-01-29T09:48:01;46987.28;;;-142.92;90.93
56456;BME280;42354;53.218;6.564;2023-01-29T09:50:41;47003.69;;;-142.92;90.55
56456;BME280;42354;53.218;6.564;2023-01-29T09:53:52;47007.81;;;-142.92;90.75
56456;BME280;42354;53.218;6.564;2023-01-29T09:56:19;47024.22;;;-142.92;90.55
56456;BME280;42354;53.218;6.564;2023-01-29T09:58:44;46993.44;;;-142.92;90.64
56456;BME280;42354;53.218;6.564;2023-01-29T10:01:34;47011.91;;;-142.92;90.41
56456;BME280;42354;53.218;6.564;2023-01-29T10:04:25;47007.81;;;-142.92;90.38
56456;BME280;42354;53.218;6.564;2023-01-29T10:15:46;47024.22;;;-142.92;90.57
56456;BME280;42354;53.218;6.564;2023-01-29T10:18:42;47026.28;;;-142.92;90.69
56456;BME280;42354;53.218;6.564;2023-01-29T10:26:57;47007.81;;;-142.92;91.63
56456;BME280;42354;53.218;6.564;2023-01-29T10:29:24;47007.81;;;-142.92;91.58
56456;BME280;42354;53.218;6.564;2023-01-29T10:31:56;47011.91;;;-142.92;91.77
56456;BME280;42354;53.218;6.564;2023-01-29T10:36:56;46993.44;;;-142.92;92.08
56456;BME280;42354;53.218;6.564;2023-01-29T10:39:23;47026.28;;;-142.92;92.13
56456;BME280;42354;53.218;6.564;2023-01-29T10:44:58;46987.28;;;-142.92;92.09
56456;BME280;42354;53.218;6.564;2023-01-29T10:50:17;46995.50;;;-142.92;92.25
56456;BME280;42354;53.218;6.564;2023-01-29T10:58:13;47022.16;;;-142.92;92.66
56456;BME280;42354;53.218;6.564;2023-01-29T11:00:42;47013.97;;;-142.92;93.01
56456;BME280;42354;53.218;6.564;2023-01-29T11:03:28;47016.00;;;-142.92;92.96
56456;BME280;42354;53.218;6.564;2023-01-29T11:06:18;47016.00;;;-142.92;93.20
56456;BME280;42354;53.218;6.564;2023-01-29T11:11:46;47032.44;;;-142.92;93.19
56456;BME280;42354;53.218;6.564;2023-01-29T11:14:21;47011.91;;;-142.92;93.00
56456;BME280;42354;53.218;6.564;2023-01-29T11:16:48;47011.91;;;-142.92;93.25
56456;BME280;42354;53.218;6.564;2023-01-29T11:19:15;47003.69;;;-142.92;93.53
56456;BME280;42354;53.218;6.564;2023-01-29T11:21:54;47007.81;;;-142.92;93.46
56456;BME280;42354;53.218;6.564;2023-01-29T11:24:20;47016.00;;;-142.92;93.56
56456;BME280;42354;53.218;6.564;2023-01-29T11:26:47;47024.22;;;-142.92;93.44
56456;BME280;42354;53.218;6.564;2023-01-29T11:31:55;47005.75;;;-142.92;93.74
56456;BME280;42354;53.218;6.564;2023-01-29T11:34:22;47016.00;;;-142.92;93.77
56456;BME280;42354;53.218;6.564;2023-01-29T11:37:15;47022.16;;;-142.92;93.36
56456;BME280;42354;53.218;6.564;2023-01-29T11:39:45;47016.00;;;-142.92;93.49
56456;BME280;42354;53.218;6.564;2023-01-29T11:42:21;47016.00;;;-142.92;93.59
56456;BME280;42354;53.218;6.564;2023-01-29T11:44:47;47009.84;;;-142.92;94.08
56456;BME280;42354;53.218;6.564;2023-01-29T11:49:44;47020.13;;;-142.92;94.24
56456;BME280;42354;53.218;6.564;2023-01-29T11:52:13;47009.84;;;-142.92;94.45
56456;BME280;42354;53.218;6.564;2023-01-29T11:54:49;47003.69;;;-142.92;94.67
56456;BME280;42354;53.218;6.564;2023-01-29T11:57:41;46999.59;;;-142.92;94.97
56456;BME280;42354;53.218;6.564;2023-01-29T12:00:18;47011.91;;;-142.92;95.28
56456;BME280;42354;53.218;6.564;2023-01-29T12:02:48;47005.75;;;-142.92;95.50
56456;BME280;42354;53.218;6.564;2023-01-29T12:05:20;47007.81;;;-142.92;95.46
56456;BME280;42354;53.218;6.564;2023-01-29T12:07:49;47038.59;;;-142.92;95.61
56456;BME280;42354;53.218;6.564;2023-01-29T12:10:30;47009.84;;;-142.92;95.79
56456;BME280;42354;53.218;6.564;2023-01-29T12:13:19;47024.22;;;-142.92;95.75
56456;BME280;42354;53.218;6.564;2023-01-29T12:15:46;47003.69;;;-142.92;95.73
56456;BME280;42354;53.218;6.564;2023-01-29T12:18:24;46999.59;;;-142.92;95.79
56456;BME280;42354;53.218;6.564;2023-01-29T12:20:57;47028.31;;;-142.92;95.27
56456;BME280;42354;53.218;6.564;2023-01-29T12:23:37;47022.16;;;-142.92;95.02
56456;BME280;42354;53.218;6.564;2023-01-29T12:26:09;47005.75;;;-142.92;95.39
56456;BME280;42354;53.218;6.564;2023-01-29T12:31:39;47011.91;;;-142.92;95.72
56456;BME280;42354;53.218;6.564;2023-01-29T12:37:10;47005.75;;;-142.92;95.30
56456;BME280;42354;53.218;6.564;2023-01-29T12:39:37;47018.06;;;-142.92;95.48
56456;BME280;42354;53.218;6.564;2023-01-29T12:42:20;47007.81;;;-142.92;95.07
56456;BME280;42354;53.218;6.564;2023-01-29T12:45:02;47018.06;;;-142.92;95.36
56456;BME280;42354;53.218;6.564;2023-01-29T12:47:38;47032.44;;;-142.92;95.16
56456;BME280;42354;53.218;6.564;2023-01-29T12:50:13;46999.59;;;-142.92;94.97
56456;BME280;42354;53.218;6.564;2023-01-29T12:52:42;47016.00;;;-142.92;95.00
56456;BME280;42354;53.218;6.564;2023-01-29T12:55:17;47011.91;;;-142.92;94.83
56456;BME280;42354;53.218;6.564;2023-01-29T13:00:25;46997.53;;;-142.92;94.82
56456;BME280;42354;53.218;6.564;2023-01-29T13:03:16;47007.81;;;-142.92;94.53
56456;BME280;42354;53.218;6.564;2023-01-29T13:05:56;46995.50;;;-142.92;94.76
56456;BME280;42354;53.218;6.564;2023-01-29T13:08:31;47009.84;;;-142.92;94.64
56456;BME280;42354;53.218;6.564;2023-01-29T13:11:03;47018.06;;;-142.92;94.93
56456;BME280;42354;53.218;6.564;2023-01-29T13:13:37;47005.75;;;-142.92;95.39
56456;BME280;42354;53.218;6.564;2023-01-29T13:16:10;47005.75;;;-142.92;95.48
56456;BME280;42354;53.218;6.564;2023-01-29T13:18:43;47018.06;;;-142.92;95.44
56456;BME280;42354;53.218;6.564;2023-01-29T13:21:11;47022.16;;;-142.92;95.75
56456;BME280;42354;53.218;6.564;2023-01-29T13:23:50;47001.66;;;-142.92;95.95
56456;BME280;42354;53.218;6.564;2023-01-29T13:26:19;46991.38;;;-142.92;95.82
56456;BME280;42354;53.218;6.564;2023-01-29T13:28:45;47016.00;;;-142.92;95.57
56456;BME280;42354;53.218;6.564;2023-01-29T13:31:17;47036.53;;;-142.92;95.77
56456;BME280;42354;53.218;6.564;2023-01-29T13:36:43;47013.97;;;-142.92;95.52
56456;BME280;42354;53.218;6.564;2023-01-29T13:39:32;47005.75;;;-142.92;95.62
56456;BME280;42354;53.218;6.564;2023-01-29T13:41:59;47016.00;;;-142.92;96.10
56456;BME280;42354;53.218;6.564;2023-01-29T13:44:27;47018.06;;;-142.92;96.31
56456;BME280;42354;53.218;6.564;2023-01-29T13:46:59;47030.38;;;-142.92;96.52
56456;BME280;42354;53.218;6.564;2023-01-29T13:49:39;47016.00;;;-142.92;96.94
56456;BME280;42354;53.218;6.564;2023-01-29T13:55:21;47028.31;;;-142.92;97.23
56456;BME280;42354;53.218;6.564;2023-01-29T13:57:59;47011.91;;;-142.92;97.16
56456;BME280;42354;53.218;6.564;2023-01-29T14:07:57;47024.22;;;-142.92;97.07
56456;BME280;42354;53.218;6.564;2023-01-29T14:10:34;47011.91;;;-142.92;97.43
56456;BME280;42354;53.218;6.564;2023-01-29T14:15:30;47026.28;;;-142.92;97.63
56456;BME280;42354;53.218;6.564;2023-01-29T14:18:17;47011.91;;;-142.92;97.76
56456;BME280;42354;53.218;6.564;2023-01-29T14:26:05;47001.66;;;-142.92;98.30
56456;BME280;42354;53.218;6.564;2023-01-29T14:28:57;47042.69;;;-142.92;98.56
56456;BME280;42354;53.218;6.564;2023-01-29T14:31:46;47016.00;;;-142.92;98.59
56456;BME280;42354;53.218;6.564;2023-01-29T14:34:21;47016.00;;;-142.92;98.64
56456;BME280;42354;53.218;6.564;2023-01-29T14:36:49;46991.38;;;-142.92;99.03
56456;BME280;42354;53.218;6.564;2023-01-29T14:39:27;47011.91;;;-142.92;99.18
56456;BME280;42354;53.218;6.564;2023-01-29T14:41:55;47020.13;;;-142.92;99.23
56456;BME280;42354;53.218;6.564;2023-01-29T14:49:53;47024.22;;;-142.92;99.16
56456;BME280;42354;53.218;6.564;2023-01-29T14:52:23;47005.75;;;-142.92;98.88
56456;BME280;42354;53.218;6.564;2023-01-29T14:54:52;47007.81;;;-142.92;98.51